Time;durP1;ratioP1;P1;durP2;ratioP2;P2;SDS_P1;SDS_P2;PMS_P1;PMS_P2;Temp;Humidity;BMP_temperature;BMP_pressure;BME280_temperature;BME280_humidity;BME280_pressure;Samples;Min_cycle;Max_cycle;Signal;HPM_P1;HPM_P2
2023/07/21 00:01:57;;;;;;;10.90;6.87;;;12.90;99.90;;;;;;4383453;28;659339;-65
2023/07/21 00:04:44;;;;;;;14.23;7.30;;;12.80;99.90;;;;;;4409397;28;659659;-65
2023/07/21 00:07:32;;;;;;;11.40;7.50;;;12.80;99.90;;;;;;4386947;28;659945;-65
2023/07/21 00:10:19;;;;;;;12.63;6.50;;;12.70;99.90;;;;;;4409371;28;660234;-65
2023/07/21 00:13:08;;;;;;;11.80;6.60;;;12.70;99.90;;;;;;4381199;28;660640;-65
2023/07/21 00:15:55;;;;;;;11.47;6.67;;;12.70;99.90;;;;;;4384019;28;660342;-65
2023/07/21 00:18:44;;;;;;;9.40;6.10;;;12.70;99.90;;;;;;4409660;28;661423;-65
2023/07/21 00:21:31;;;;;;;10.33;6.50;;;12.60;99.90;;;;;;4390851;28;658681;-65
2023/07/21 00:24:20;;;;;;;10.97;6.63;;;12.60;99.90;;;;;;4416558;28;660299;-64
2023/07/21 00:27:08;;;;;;;12.67;7.00;;;12.50;99.90;;;;;;4386896;28;660659;-65
2023/07/21 00:29:57;;;;;;;9.00;6.57;;;12.40;99.90;;;;;;4402722;28;659377;-66
2023/07/21 00:32:44;;;;;;;10.43;6.03;;;12.30;99.90;;;;;;4413235;28;658483;-65
2023/07/21 00:35:34;;;;;;;16.20;6.40;;;12.30;99.90;;;;;;4393778;28;660269;-65
2023/07/21 00:38:21;;;;;;;10.03;5.67;;;12.30;99.90;;;;;;4380126;28;659871;-65
2023/07/21 00:41:09;;;;;;;11.10;6.50;;;12.30;99.90;;;;;;4414709;28;660505;-65
2023/07/21 00:43:56;;;;;;;7.80;5.77;;;12.30;99.90;;;;;;4388506;28;659922;-65
2023/07/21 00:46:44;;;;;;;10.13;5.70;;;12.30;99.90;;;;;;4416041;28;659211;-65
2023/07/21 00:49:32;;;;;;;8.33;6.30;;;12.30;99.90;;;;;;4387147;28;659504;-65
2023/07/21 00:52:20;;;;;;;11.47;6.13;;;12.20;99.90;;;;;;4410300;28;658835;-65
2023/07/21 00:55:08;;;;;;;10.27;5.97;;;12.20;99.90;;;;;;4392384;28;660767;-65
2023/07/21 00:57:55;;;;;;;13.10;5.90;;;12.20;99.90;;;;;;4383975;28;660944;-65
2023/07/21 01:00:43;;;;;;;10.03;5.40;;;12.20;99.90;;;;;;4408455;28;660186;-65
2023/07/21 01:03:32;;;;;;;7.50;6.00;;;12.20;99.90;;;;;;4394250;28;659895;-66
2023/07/21 01:06:19;;;;;;;8.97;5.60;;;12.30;99.90;;;;;;4411563;28;659503;-65
2023/07/21 01:09:08;;;;;;;7.80;6.00;;;12.30;99.90;;;;;;4388476;28;658716;-65
2023/07/21 01:11:55;;;;;;;8.67;5.97;;;12.30;99.90;;;;;;4394182;28;658261;-66
2023/07/21 01:14:43;;;;;;;13.13;5.50;;;12.40;99.90;;;;;;4413069;28;659682;-66
2023/07/21 01:17:30;;;;;;;8.83;5.63;;;12.40;99.90;;;;;;4402464;28;659734;-66
2023/07/21 01:20:22;;;;;;;10.67;6.17;;;12.40;99.90;;;;;;4411884;28;660139;-65
2023/07/21 01:23:18;;;;;;;10.02;5.72;;;12.40;99.90;;;;;;4387313;28;660281;-65
2023/07/21 01:26:07;;;;;;;10.03;5.90;;;12.40;99.90;;;;;;4356780;28;659595;-65
2023/07/21 01:28:54;;;;;;;10.03;6.07;;;12.40;99.90;;;;;;4411620;28;659986;-65
2023/07/21 01:31:41;;;;;;;10.83;6.30;;;12.50;99.90;;;;;;4388798;28;659982;-65
2023/07/21 01:34:29;;;;;;;10.47;6.00;;;12.50;99.90;;;;;;4410558;28;660325;-65
2023/07/21 01:37:17;;;;;;;12.47;5.90;;;12.60;99.90;;;;;;4383055;28;659859;-65
2023/07/21 01:40:06;;;;;;;10.63;6.00;;;12.60;99.90;;;;;;4414400;28;659945;-65
2023/07/21 01:42:55;;;;;;;10.93;5.83;;;12.60;99.90;;;;;;4384016;28;661336;-65
2023/07/21 01:45:42;;;;;;;8.20;6.73;;;12.70;99.90;;;;;;4385214;28;660820;-65
2023/07/21 01:48:29;;;;;;;9.30;5.87;;;12.70;99.90;;;;;;4402984;28;658243;-66
2023/07/21 01:51:17;;;;;;;9.50;5.73;;;12.80;99.90;;;;;;4393424;28;659546;-64
2023/07/21 01:54:07;;;;;;;10.67;5.73;;;12.80;99.90;;;;;;4410545;28;659111;-65
2023/07/21 01:56:56;;;;;;;7.97;5.75;;;12.80;99.90;;;;;;4383625;28;659545;-65
2023/07/21 01:59:45;;;;;;;8.57;5.30;;;12.80;99.90;;;;;;4384540;28;659704;-65
2023/07/21 02:02:33;;;;;;;14.23;6.23;;;12.80;99.90;;;;;;4385879;28;659565;-65
2023/07/21 02:05:20;;;;;;;7.33;5.40;;;12.80;99.90;;;;;;4399030;28;659985;-66
2023/07/21 02:08:09;;;;;;;7.97;5.93;;;12.90;99.90;;;;;;4406119;28;659053;-65
2023/07/21 02:10:56;;;;;;;12.33;6.20;;;12.90;99.90;;;;;;4383634;28;658716;-65
2023/07/21 02:13:44;;;;;;;8.53;6.13;;;13.00;99.90;;;;;;4407979;28;659536;-65
2023/07/21 02:16:32;;;;;;;7.93;5.60;;;13.00;99.90;;;;;;4383321;28;658460;-65
2023/07/21 02:19:20;;;;;;;7.10;5.37;;;13.00;99.90;;;;;;4409867;28;658653;-65
2023/07/21 02:22:07;;;;;;;12.07;5.83;;;13.10;99.90;;;;;;4385138;28;660346;-65
2023/07/21 02:24:54;;;;;;;8.38;5.70;;;13.00;99.90;;;;;;4403206;28;660003;-65
2023/07/21 02:27:41;;;;;;;10.83;6.00;;;13.00;99.90;;;;;;4384114;28;658686;-65
2023/07/21 02:30:29;;;;;;;9.47;5.17;;;13.00;99.90;;;;;;4402288;28;660042;-65
2023/07/21 02:33:18;;;;;;;8.20;5.53;;;13.00;99.90;;;;;;4385094;28;658552;-65
2023/07/21 02:36:06;;;;;;;9.70;5.22;;;13.00;99.90;;;;;;4390234;28;658520;-66
2023/07/21 02:38:53;;;;;;;9.87;5.73;;;13.10;99.90;;;;;;4403137;28;659540;-65
2023/07/21 02:41:41;;;;;;;8.10;5.67;;;13.10;99.90;;;;;;4392050;28;659243;-65
2023/07/21 02:44:29;;;;;;;9.63;5.97;;;13.10;99.90;;;;;;4408574;28;659712;-65
2023/07/21 02:47:17;;;;;;;8.40;5.77;;;13.10;99.90;;;;;;4388326;28;658855;-65
2023/07/21 02:50:07;;;;;;;6.73;5.33;;;13.20;99.90;;;;;;4404292;28;659302;-65
2023/07/21 02:52:54;;;;;;;7.80;5.27;;;13.20;99.90;;;;;;4379104;28;659119;-65
2023/07/21 02:55:41;;;;;;;8.90;5.80;;;13.20;99.90;;;;;;4385538;28;659715;-65
2023/07/21 02:58:29;;;;;;;10.17;6.10;;;13.20;99.90;;;;;;4408105;28;659058;-65
2023/07/21 03:01:17;;;;;;;15.53;6.43;;;13.20;99.90;;;;;;4383869;28;659560;-65
2023/07/21 03:04:05;;;;;;;10.60;6.80;;;13.30;99.90;;;;;;4399550;28;660251;-65
2023/07/21 03:06:54;;;;;;;17.07;6.37;;;13.30;99.90;;;;;;4404342;28;660816;-65
2023/07/21 03:09:41;;;;;;;10.70;5.83;;;13.30;99.90;;;;;;4383411;28;659962;-65
2023/07/21 03:12:28;;;;;;;11.37;6.00;;;13.30;99.90;;;;;;4408275;28;660309;-65
2023/07/21 03:15:16;;;;;;;8.50;5.23;;;13.30;99.90;;;;;;4390011;28;660078;-65
2023/07/21 03:18:03;;;;;;;11.27;6.53;;;13.30;99.90;;;;;;4405626;28;659885;-65
2023/07/21 03:20:50;;;;;;;9.67;6.60;;;13.40;99.90;;;;;;4386488;28;659554;-66
2023/07/21 03:23:39;;;;;;;9.47;6.43;;;13.40;99.90;;;;;;4411796;28;659587;-65
2023/07/21 03:26:27;;;;;;;10.05;6.57;;;13.40;99.90;;;;;;4381737;28;658667;-65
2023/07/21 03:29:14;;;;;;;10.17;5.57;;;13.50;99.90;;;;;;4408336;28;659764;-66
2023/07/21 03:32:02;;;;;;;8.33;6.07;;;13.50;99.90;;;;;;4384860;28;659730;-65
2023/07/21 03:34:50;;;;;;;10.87;7.90;;;13.50;99.90;;;;;;4407683;28;658710;-65
2023/07/21 03:37:38;;;;;;;12.03;7.90;;;13.60;99.90;;;;;;4383217;28;660659;-65
2023/07/21 03:40:27;;;;;;;11.60;6.47;;;13.60;99.90;;;;;;4392225;28;659448;-66
2023/07/21 03:43:15;;;;;;;12.00;8.17;;;13.70;99.90;;;;;;4404685;28;660004;-65
2023/07/21 03:46:03;;;;;;;11.93;7.07;;;13.70;99.90;;;;;;4381280;28;660453;-66
2023/07/21 03:48:51;;;;;;;13.13;8.33;;;13.80;99.90;;;;;;4380937;28;659510;-66
2023/07/21 03:51:39;;;;;;;17.33;8.37;;;13.80;99.90;;;;;;4410871;28;660520;-65
2023/07/21 03:54:26;;;;;;;12.27;7.17;;;13.80;99.90;;;;;;4389321;28;660322;-65
2023/07/21 03:57:15;;;;;;;10.30;6.80;;;13.90;99.90;;;;;;4412577;28;660910;-65
2023/07/21 04:00:05;;;;;;;9.73;6.40;;;13.90;99.90;;;;;;4384600;28;660231;-65
2023/07/21 04:02:53;;;;;;;9.18;6.40;;;14.00;99.90;;;;;;4387616;28;659806;-65
2023/07/21 04:05:40;;;;;;;8.77;6.03;;;14.10;99.90;;;;;;4397241;28;659220;-66
2023/07/21 04:08:27;;;;;;;8.43;6.60;;;14.10;99.90;;;;;;4413534;28;658782;-65
2023/07/21 04:11:15;;;;;;;9.17;6.07;;;14.20;99.90;;;;;;4413757;28;658355;-65
2023/07/21 04:14:03;;;;;;;10.53;6.20;;;14.20;99.90;;;;;;4379197;28;659744;-65
2023/07/21 04:16:51;;;;;;;7.37;5.33;;;14.30;99.90;;;;;;4390766;28;659341;-65
2023/07/21 04:19:38;;;;;;;7.67;5.33;;;14.40;99.90;;;;;;4417078;28;660280;-65
2023/07/21 04:22:25;;;;;;;10.67;6.30;;;14.50;99.90;;;;;;4397597;28;658290;-65
2023/07/21 04:25:12;;;;;;;9.10;5.60;;;14.60;99.90;;;;;;4408095;28;660200;-65
2023/07/21 04:27:59;;;;;;;7.33;5.40;;;14.60;99.90;;;;;;4413256;28;658667;-65
2023/07/21 04:30:48;;;;;;;6.13;4.63;;;14.80;99.90;;;;;;4390186;28;659552;-65
2023/07/21 04:33:36;;;;;;;6.15;4.78;;;14.80;99.90;;;;;;4392947;28;658380;-66
2023/07/21 04:36:23;;;;;;;9.87;4.80;;;14.70;99.90;;;;;;4413725;28;659148;-65
2023/07/21 04:39:10;;;;;;;10.17;6.30;;;14.90;99.90;;;;;;4392996;28;659175;-66
2023/07/21 04:41:58;;;;;;;8.23;4.97;;;15.00;99.90;;;;;;4409485;28;660915;-65
2023/07/21 04:44:48;;;;;;;8.37;4.63;;;15.20;99.90;;;;;;4397248;28;658619;-65
2023/07/21 04:47:37;;;;;;;11.98;5.20;;;15.30;99.90;;;;;;4397196;28;659080;-65
2023/07/21 04:50:24;;;;;;;7.63;5.33;;;15.40;99.90;;;;;;4410472;28;660322;-65
2023/07/21 04:53:11;;;;;;;7.53;5.33;;;15.50;99.90;;;;;;4389332;28;658547;-64
2023/07/21 04:55:58;;;;;;;8.87;6.30;;;15.60;99.90;;;;;;4408801;28;659184;-64
2023/07/21 04:58:45;;;;;;;9.63;6.70;;;15.60;99.90;;;;;;4393102;28;658403;-64
2023/07/21 05:01:33;;;;;;;9.23;6.03;;;15.80;99.90;;;;;;4412695;28;660071;-64
2023/07/21 05:04:22;;;;;;;10.87;5.93;;;15.90;99.90;;;;;;4403906;28;658747;-65
2023/07/21 05:07:09;;;;;;;11.20;7.27;;;15.90;99.90;;;;;;4411106;28;659541;-64
2023/07/21 05:09:56;;;;;;;13.63;6.87;;;15.80;99.90;;;;;;4387948;28;660065;-64
2023/07/21 05:12:43;;;;;;;11.63;6.53;;;15.80;99.90;;;;;;4411403;28;660591;-64
2023/07/21 05:15:31;;;;;;;9.50;6.80;;;15.70;99.90;;;;;;4391206;28;660228;-64
2023/07/21 05:18:18;;;;;;;13.10;9.27;;;15.70;99.90;;;;;;4416555;28;660223;-64
2023/07/21 05:21:07;;;;;;;13.10;8.20;;;15.70;99.90;;;;;;4392195;28;659836;-64
2023/07/21 05:23:54;;;;;;;12.80;8.20;;;15.70;99.90;;;;;;4409065;28;659864;-64
2023/07/21 05:26:41;;;;;;;12.40;7.57;;;15.60;99.90;;;;;;4387792;28;661352;-63
2023/07/21 05:29:28;;;;;;;14.73;8.40;;;15.60;99.90;;;;;;4409712;28;660920;-64
2023/07/21 05:32:16;;;;;;;15.43;8.90;;;15.60;99.90;;;;;;4390936;28;660256;-64
2023/07/21 05:35:08;;;;;;;11.53;7.73;;;15.80;99.90;;;;;;4408515;28;660755;-64
2023/07/21 05:37:57;;;;;;;10.83;8.10;;;15.90;99.90;;;;;;4356408;28;660517;-64
2023/07/21 05:40:44;;;;;;;14.47;7.87;;;16.00;99.90;;;;;;4420754;28;659638;-64
2023/07/21 05:43:31;;;;;;;12.50;7.00;;;16.10;99.90;;;;;;4390232;28;659924;-64
2023/07/21 05:46:18;;;;;;;12.00;7.27;;;16.20;99.90;;;;;;4408321;28;661205;-64
2023/07/21 05:49:07;;;;;;;11.07;6.93;;;16.20;99.90;;;;;;4391221;28;659947;-64
2023/07/21 05:51:54;;;;;;;12.43;7.33;;;16.20;99.90;;;;;;4414989;28;659473;-64
2023/07/21 05:54:43;;;;;;;10.20;7.13;;;16.30;99.90;;;;;;4388508;28;659784;-64
2023/07/21 05:57:30;;;;;;;10.57;7.07;;;16.20;99.90;;;;;;4389511;28;660235;-64
2023/07/21 06:00:18;;;;;;;13.27;6.80;;;16.10;99.90;;;;;;4412728;28;659268;-63
2023/07/21 06:03:06;;;;;;;14.10;7.80;;;16.00;99.90;;;;;;4384848;28;660484;-64
2023/07/21 06:05:53;;;;;;;12.67;7.20;;;15.80;99.90;;;;;;4414031;28;661403;-64
2023/07/21 06:08:40;;;;;;;14.43;7.07;;;15.70;99.90;;;;;;4389758;28;660966;-64
2023/07/21 06:11:29;;;;;;;15.70;8.87;;;15.70;99.90;;;;;;4407717;28;660408;-64
2023/07/21 06:14:16;;;;;;;15.63;7.70;;;15.50;99.90;;;;;;4387702;28;659682;-64
2023/07/21 06:17:03;;;;;;;15.80;8.87;;;15.50;99.90;;;;;;4412304;28;659782;-63
2023/07/21 06:19:50;;;;;;;15.63;7.93;;;15.60;99.90;;;;;;4385251;28;660350;-64
2023/07/21 06:22:38;;;;;;;14.50;7.73;;;15.70;99.90;;;;;;4403574;28;660706;-64
2023/07/21 06:25:25;;;;;;;16.53;8.60;;;15.80;99.90;;;;;;4396401;28;660588;-64
2023/07/21 06:28:14;;;;;;;13.03;7.80;;;15.80;99.90;;;;;;4408876;28;659398;-63
2023/07/21 06:31:01;;;;;;;15.57;7.50;;;15.80;99.90;;;;;;4386806;28;661905;-63
2023/07/21 06:33:48;;;;;;;12.27;8.10;;;15.70;99.90;;;;;;4404841;28;660826;-63
2023/07/21 06:36:35;;;;;;;15.90;7.70;;;15.70;99.90;;;;;;4388334;28;659738;-63
2023/07/21 06:39:23;;;;;;;15.33;7.37;;;15.70;99.90;;;;;;4403779;28;660475;-63
2023/07/21 06:42:10;;;;;;;11.27;6.40;;;15.60;99.90;;;;;;4392519;28;659641;-63
2023/07/21 06:44:59;;;;;;;14.80;8.37;;;15.70;99.90;;;;;;4406801;28;660589;-63
2023/07/21 06:47:46;;;;;;;12.90;8.70;;;15.70;99.90;;;;;;4385578;28;659653;-63
2023/07/21 06:50:33;;;;;;;15.70;9.03;;;15.90;99.90;;;;;;4408829;28;660132;-63
2023/07/21 06:53:28;;;;;;;15.00;8.27;;;15.90;99.90;;;;;;4917533;27;131083;-64
2023/07/21 06:56:16;;;;;;;11.10;7.63;;;16.00;99.90;;;;;;4397374;28;651433;-63
2023/07/21 06:59:03;;;;;;;15.27;8.50;;;16.10;99.90;;;;;;4422129;28;651871;-63
2023/07/21 07:01:50;;;;;;;12.07;8.20;;;16.10;99.90;;;;;;4393378;28;651688;-64
2023/07/21 07:04:38;;;;;;;12.70;7.93;;;16.10;99.90;;;;;;4412087;28;651963;-63
2023/07/21 07:07:27;;;;;;;14.30;7.90;;;16.20;99.90;;;;;;4395767;28;651776;-63
2023/07/21 07:10:16;;;;;;;12.17;7.87;;;16.30;99.90;;;;;;4412039;28;652724;-64
2023/07/21 07:13:03;;;;;;;12.43;7.60;;;16.20;99.90;;;;;;4383808;28;653339;-63
2023/07/21 07:15:50;;;;;;;12.00;7.73;;;16.30;99.90;;;;;;4390182;28;652863;-63
2023/07/21 07:18:37;;;;;;;11.27;7.53;;;16.50;99.90;;;;;;4416515;28;653150;-63
2023/07/21 07:21:25;;;;;;;13.57;8.27;;;16.60;99.90;;;;;;4408063;28;654195;-64
2023/07/21 07:24:12;;;;;;;15.53;7.97;;;16.90;99.90;;;;;;4406676;28;654067;-63
2023/07/21 07:27:01;;;;;;;14.47;8.00;;;17.00;99.90;;;;;;4420111;28;653264;-63
2023/07/21 07:29:48;;;;;;;11.57;6.97;;;17.20;99.90;;;;;;4414389;28;654136;-63
2023/07/21 07:32:35;;;;;;;13.00;7.75;;;17.30;99.90;;;;;;4422925;28;653818;-64
2023/07/21 07:35:22;;;;;;;14.33;7.40;;;17.50;99.90;;;;;;4444914;28;652873;-63
2023/07/21 07:38:10;;;;;;;13.87;7.77;;;17.70;99.90;;;;;;4427400;28;654258;-63
2023/07/21 07:41:01;;;;;;;13.43;7.20;;;17.90;99.90;;;;;;4443613;28;654683;-63
2023/07/21 07:43:49;;;;;;;14.18;6.95;;;18.20;99.90;;;;;;4408238;28;654405;-63
2023/07/21 07:46:36;;;;;;;10.63;7.13;;;18.40;99.90;;;;;;4403764;28;653340;-63
2023/07/21 07:49:24;;;;;;;18.70;7.67;;;18.60;99.90;;;;;;4417543;28;654384;-63
2023/07/21 07:52:11;;;;;;;12.77;6.90;;;18.80;99.90;;;;;;4403923;28;653217;-63
2023/07/21 07:54:58;;;;;;;10.90;5.83;;;18.90;99.90;;;;;;4421723;28;654204;-63
2023/07/21 07:57:45;;;;;;;9.63;5.33;;;19.10;99.90;;;;;;4411362;28;654225;-63
2023/07/21 08:00:36;;;;;;;10.43;4.97;;;19.30;99.90;;;;;;4432292;28;652962;-63
2023/07/21 08:03:23;;;;;;;12.47;5.67;;;19.50;99.90;;;;;;4405719;28;653471;-63
2023/07/21 08:06:11;;;;;;;8.90;5.13;;;19.50;99.90;;;;;;4396455;28;654898;-63
2023/07/21 08:08:58;;;;;;;11.13;4.73;;;19.70;99.90;;;;;;4412799;28;653400;-63
2023/07/21 08:11:46;;;;;;;9.00;4.23;;;19.80;99.90;;;;;;4397936;28;653220;-63
2023/07/21 08:14:33;;;;;;;13.23;4.13;;;19.80;99.90;;;;;;4419228;28;653007;-63
2023/07/21 08:17:22;;;;;;;7.97;3.80;;;19.90;99.90;;;;;;4399913;28;653577;-64
2023/07/21 08:20:10;;;;;;;7.80;2.90;;;20.10;99.90;;;;;;4410880;28;652076;-63
2023/07/21 08:22:57;;;;;;;6.30;2.90;;;20.20;99.90;;;;;;4390827;28;652304;-64
2023/07/21 08:25:44;;;;;;;6.57;3.17;;;20.40;99.90;;;;;;4407323;28;652135;-63
2023/07/21 08:28:32;;;;;;;5.77;3.50;;;20.60;99.90;;;;;;4391945;28;652617;-63
2023/07/21 08:31:19;;;;;;;5.10;2.90;;;20.90;99.90;;;;;;4415512;28;653087;-63
2023/07/21 08:34:08;;;;;;;8.40;2.80;;;20.90;99.90;;;;;;4393874;28;652322;-64
2023/07/21 08:36:55;;;;;;;4.63;2.83;;;21.20;99.90;;;;;;4412648;28;652175;-64
2023/07/21 08:39:43;;;;;;;8.47;2.90;;;21.30;99.90;;;;;;4412961;28;652146;-63
2023/07/21 08:42:30;;;;;;;3.27;2.53;;;21.20;99.90;;;;;;4396672;28;652273;-64
2023/07/21 08:45:18;;;;;;;5.00;2.83;;;21.30;99.90;;;;;;4415339;28;652760;-63
2023/07/21 08:48:07;;;;;;;6.57;3.23;;;21.30;99.90;;;;;;4397266;28;652695;-64
2023/07/21 08:50:56;;;;;;;4.00;2.80;;;21.50;99.90;;;;;;4408809;28;652561;-63
2023/07/21 08:53:43;;;;;;;5.43;3.20;;;21.90;99.90;;;;;;4393051;28;652893;-63
2023/07/21 08:56:30;;;;;;;6.07;2.70;;;22.50;99.90;;;;;;4398912;28;652573;-64
2023/07/21 08:59:19;;;;;;;6.20;2.20;;;22.70;99.90;;;;;;4418404;28;652137;-63
2023/07/21 09:02:06;;;;;;;2.87;2.20;;;22.70;99.90;;;;;;4395744;28;652890;-63
2023/07/21 09:04:53;;;;;;;5.87;2.30;;;22.90;99.90;;;;;;4413991;28;653231;-63
2023/07/21 09:07:44;;;;;;;2.50;1.60;;;23.30;99.90;;;;;;4397488;28;652562;-63
2023/07/21 09:10:32;;;;;;;2.60;2.00;;;23.40;99.90;;;;;;4394063;28;652322;-64
2023/07/21 09:13:20;;;;;;;2.57;1.80;;;23.10;99.90;;;;;;4409123;28;652783;-64
2023/07/21 09:16:07;;;;;;;4.37;2.10;;;23.10;99.90;;;;;;4396040;28;653022;-63
2023/07/21 09:18:54;;;;;;;6.50;1.90;;;23.10;99.90;;;;;;4414831;28;652344;-64
2023/07/21 09:21:42;;;;;;;5.47;2.00;;;23.00;99.90;;;;;;4402033;28;652511;-64
2023/07/21 09:24:30;;;;;;;5.67;1.93;;;22.90;99.90;;;;;;4412410;28;651935;-63
2023/07/21 09:27:18;;;;;;;5.77;2.10;;;22.70;99.90;;;;;;4389903;28;653201;-64
2023/07/21 09:30:07;;;;;;;3.10;1.80;;;22.70;99.90;;;;;;4393952;28;653398;-65
2023/07/21 09:32:56;;;;;;;3.87;2.10;;;22.70;99.90;;;;;;4414727;28;651975;-63
2023/07/21 09:35:43;;;;;;;3.37;2.00;;;22.60;99.90;;;;;;4392535;28;653240;-64
2023/07/21 09:38:30;;;;;;;4.27;2.50;;;22.80;99.90;;;;;;4399258;28;652065;-64
2023/07/21 09:41:23;;;;;;;4.20;2.20;;;22.90;99.90;;;;;;4413372;28;654513;-62
2023/07/21 09:44:10;;;;;;;4.67;2.33;;;23.00;99.90;;;;;;4379790;28;653740;-62
2023/07/21 09:46:57;;;;;;;5.17;2.63;;;22.70;99.90;;;;;;4417251;28;654345;-63
2023/07/21 09:49:44;;;;;;;5.53;2.37;;;22.70;99.90;;;;;;4415697;28;653833;-63
2023/07/21 09:52:37;;;;;;;4.60;2.90;;;22.90;99.90;;;;;;4396256;28;654851;-63
2023/07/21 09:55:24;;;;;;;7.03;3.27;;;23.30;99.90;;;;;;4392805;28;653432;-63
2023/07/21 09:58:12;;;;;;;10.70;3.63;;;23.90;99.90;;;;;;4392159;28;653627;-63
2023/07/21 10:01:04;;;;;;;7.75;3.60;;;24.10;99.90;;;;;;4403542;28;654769;-63
2023/07/21 10:03:52;;;;;;;7.20;3.70;;;24.10;99.90;;;;;;4397038;28;653360;-63
2023/07/21 10:06:40;;;;;;;6.95;3.58;;;24.20;99.90;;;;;;4412286;28;654584;-63
2023/07/21 10:09:27;;;;;;;5.10;3.10;;;24.10;99.90;;;;;;4392152;28;654481;-63
2023/07/21 10:12:16;;;;;;;3.97;2.75;;;24.50;99.90;;;;;;4411060;28;653130;-63
2023/07/21 10:15:07;;;;;;;5.22;2.83;;;24.70;96.20;;;;;;4392688;28;655214;-63
2023/07/21 10:17:58;;;;;;;7.78;3.03;;;24.50;89.70;;;;;;4390404;28;653665;-63
2023/07/21 10:20:48;;;;;;;5.38;2.83;;;24.40;92.90;;;;;;4367424;28;653366;-63
2023/07/21 10:23:39;;;;;;;4.63;2.72;;;24.50;93.00;;;;;;4403240;28;653016;-63
2023/07/21 10:26:26;;;;;;;5.45;3.20;;;24.90;96.80;;;;;;4399212;28;653180;-63
2023/07/21 10:29:17;;;;;;;5.63;2.72;;;25.30;95.80;;;;;;4410194;28;654733;-63
2023/07/21 10:32:06;;;;;;;3.90;2.47;;;25.30;87.50;;;;;;4393442;28;653379;-62
2023/07/21 10:34:54;;;;;;;4.72;2.67;;;25.20;89.60;;;;;;4400158;28;653676;-63
2023/07/21 10:37:41;;;;;;;6.68;2.25;;;25.20;91.50;;;;;;4393742;28;653708;-63
2023/07/21 10:40:28;;;;;;;4.63;2.13;;;24.90;79.80;;;;;;4419105;28;654186;-63
2023/07/21 10:43:15;;;;;;;4.93;2.50;;;25.20;92.00;;;;;;4390112;28;654399;-63
2023/07/21 10:46:05;;;;;;;5.43;2.50;;;25.40;94.30;;;;;;4414709;28;653794;-63
2023/07/21 10:48:54;;;;;;;7.40;2.60;;;25.50;83.60;;;;;;4407674;28;654513;-63
2023/07/21 10:51:41;;;;;;;4.47;2.50;;;25.40;87.30;;;;;;4390015;28;653474;-63
2023/07/21 10:54:29;;;;;;;3.40;2.22;;;25.40;85.90;;;;;;4413083;28;654310;-62
2023/07/21 10:57:16;;;;;;;5.22;2.17;;;25.50;83.20;;;;;;4392176;28;653255;-63
2023/07/21 11:00:06;;;;;;;5.28;2.38;;;25.50;82.90;;;;;;4409844;28;654329;-63
2023/07/21 11:02:54;;;;;;;4.80;2.55;;;25.40;75.50;;;;;;4388705;28;654450;-63
2023/07/21 11:05:43;;;;;;;4.05;2.20;;;25.30;77.30;;;;;;4388024;28;654260;-63
2023/07/21 11:08:30;;;;;;;4.40;2.53;;;25.10;75.30;;;;;;4394589;28;653680;-63
2023/07/21 11:11:17;;;;;;;4.68;2.40;;;25.10;79.40;;;;;;4412313;28;654935;-62
2023/07/21 11:14:06;;;;;;;5.53;2.50;;;25.40;84.90;;;;;;4411563;28;654819;-63
2023/07/21 11:16:54;;;;;;;6.53;2.30;;;25.80;85.30;;;;;;4413030;28;654170;-63
2023/07/21 11:19:42;;;;;;;7.88;2.53;;;26.00;75.80;;;;;;4389590;28;653905;-63
2023/07/21 11:22:30;;;;;;;3.90;2.10;;;26.10;85.70;;;;;;4407996;28;653759;-63
2023/07/21 11:25:17;;;;;;;3.10;2.45;;;26.50;81.90;;;;;;4391665;28;654422;-63
2023/07/21 11:28:06;;;;;;;3.90;2.40;;;26.80;76.10;;;;;;4410473;28;653722;-63
2023/07/21 11:30:53;;;;;;;5.00;2.38;;;26.60;72.50;;;;;;4389454;28;653989;-63
2023/07/21 11:33:41;;;;;;;3.35;1.90;;;27.10;68.50;;;;;;4397825;28;654302;-63
2023/07/21 11:36:29;;;;;;;2.45;1.83;;;27.30;74.50;;;;;;4414354;28;655130;-63
2023/07/21 11:39:20;;;;;;;2.47;1.70;;;27.50;66.20;;;;;;4391620;28;654760;-63
2023/07/21 11:42:08;;;;;;;3.97;1.88;;;27.60;59.40;;;;;;4386165;28;655495;-62
2023/07/21 11:44:55;;;;;;;3.50;2.15;;;27.40;58.50;;;;;;4395961;28;654179;-62
2023/07/21 11:47:43;;;;;;;7.75;2.20;;;27.20;58.20;;;;;;4417431;28;656085;-62
2023/07/21 11:50:30;;;;;;;6.53;2.00;;;27.30;61.10;;;;;;4399775;28;654481;-63
2023/07/21 11:53:18;;;;;;;4.28;1.80;;;27.00;61.50;;;;;;4365400;28;655605;-63
2023/07/21 11:56:07;;;;;;;5.57;1.88;;;27.20;60.40;;;;;;4378043;28;654720;-63
2023/07/21 11:58:54;;;;;;;5.13;1.85;;;27.20;60.30;;;;;;4381122;28;654162;-64
2023/07/21 12:01:41;;;;;;;1.73;1.40;;;27.40;64.30;;;;;;4368645;28;654528;-64
2023/07/21 12:04:28;;;;;;;2.83;1.55;;;27.30;59.50;;;;;;4376723;28;655352;-64
2023/07/21 12:07:15;;;;;;;3.50;1.58;;;27.10;57.40;;;;;;4364696;28;654365;-63
2023/07/21 12:10:03;;;;;;;4.95;1.70;;;26.70;58.00;;;;;;4377286;28;654969;-63
2023/07/21 12:12:52;;;;;;;2.20;1.55;;;27.10;59.90;;;;;;4364274;28;655173;-64
2023/07/21 12:15:39;;;;;;;3.10;1.80;;;27.50;58.20;;;;;;4371278;28;654301;-63
2023/07/21 12:18:27;;;;;;;3.28;1.60;;;28.00;57.40;;;;;;4363569;28;654542;-63
2023/07/21 12:21:14;;;;;;;8.30;1.70;;;27.90;56.30;;;;;;4378509;28;654667;-63
2023/07/21 12:24:01;;;;;;;4.35;1.80;;;27.80;56.90;;;;;;4364942;28;654555;-63
2023/07/21 12:26:48;;;;;;;3.50;1.50;;;27.90;57.50;;;;;;4380586;28;655916;-62
2023/07/21 12:29:37;;;;;;;6.15;1.98;;;27.80;60.60;;;;;;4360622;28;654441;-64
2023/07/21 12:32:24;;;;;;;2.65;1.77;;;27.80;59.00;;;;;;4382288;28;654103;-62
2023/07/21 12:35:12;;;;;;;4.28;1.42;;;27.80;55.10;;;;;;4358712;28;655215;-63
2023/07/21 12:37:59;;;;;;;2.67;1.70;;;27.60;55.10;;;;;;4379061;28;654753;-62
2023/07/21 12:40:46;;;;;;;4.55;1.80;;;27.50;57.60;;;;;;4357401;28;654541;-64
2023/07/21 12:43:33;;;;;;;2.05;1.70;;;27.40;59.10;;;;;;4381396;28;655769;-62
2023/07/21 12:46:22;;;;;;;2.03;1.60;;;26.50;55.00;;;;;;4366354;28;654655;-63
2023/07/21 12:49:09;;;;;;;2.53;1.88;;;25.60;60.00;;;;;;4378484;28;655427;-62
2023/07/21 12:51:56;;;;;;;5.22;2.30;;;25.50;59.80;;;;;;4363020;28;654531;-62
2023/07/21 12:54:43;;;;;;;2.38;1.73;;;24.80;63.20;;;;;;4393913;28;655186;-62
2023/07/21 12:57:31;;;;;;;6.13;2.00;;;24.70;71.40;;;;;;4374953;28;655200;-62
2023/07/21 13:00:18;;;;;;;4.38;2.20;;;24.90;69.70;;;;;;4399732;28;655084;-62
2023/07/21 13:03:07;;;;;;;4.80;2.10;;;25.10;71.90;;;;;;4372226;28;654744;-63
2023/07/21 13:05:54;;;;;;;4.78;2.25;;;25.30;68.00;;;;;;4405463;28;655286;-62
2023/07/21 13:08:41;;;;;;;5.80;2.45;;;25.70;69.60;;;;;;4381062;28;654563;-63
2023/07/21 13:11:28;;;;;;;8.45;2.65;;;26.10;71.20;;;;;;4389477;28;655146;-63
2023/07/21 13:14:15;;;;;;;6.50;2.53;;;26.00;71.60;;;;;;4367110;28;654861;-63
2023/07/21 13:17:03;;;;;;;6.05;2.72;;;26.00;65.20;;;;;;4403975;28;655280;-62
2023/07/21 13:19:52;;;;;;;8.10;2.67;;;26.10;69.40;;;;;;4373571;28;654637;-63
2023/07/21 13:22:39;;;;;;;6.03;2.60;;;26.20;71.50;;;;;;4400652;28;654492;-63
2023/07/21 13:25:26;;;;;;;6.82;2.95;;;25.70;71.50;;;;;;4371441;28;655103;-63
2023/07/21 13:28:13;;;;;;;7.75;2.92;;;25.80;79.70;;;;;;4395051;28;654981;-63
2023/07/21 13:31:01;;;;;;;6.72;2.65;;;25.90;71.60;;;;;;4382403;28;654818;-64
2023/07/21 13:33:48;;;;;;;4.13;2.45;;;26.00;74.60;;;;;;4395993;28;655227;-63
2023/07/21 13:36:37;;;;;;;3.78;2.30;;;26.10;73.50;;;;;;4379717;28;654972;-63
2023/07/21 13:39:24;;;;;;;4.20;2.33;;;26.20;74.30;;;;;;4391352;28;654804;-63
2023/07/21 13:42:12;;;;;;;7.82;2.45;;;26.30;75.60;;;;;;4380458;28;654683;-64
2023/07/21 13:45:00;;;;;;;3.95;2.45;;;26.50;75.10;;;;;;4398009;28;654890;-63
2023/07/21 13:47:47;;;;;;;8.98;2.75;;;26.60;73.10;;;;;;4398166;28;654999;-63
2023/07/21 13:50:35;;;;;;;4.05;2.40;;;26.70;72.10;;;;;;4411841;28;654617;-64
2023/07/21 13:53:24;;;;;;;4.82;2.63;;;26.70;69.10;;;;;;4424627;28;654634;-63
2023/07/21 13:56:11;;;;;;;2.75;1.90;;;26.90;71.90;;;;;;4397029;28;654547;-63
2023/07/21 13:58:59;;;;;;;4.43;2.13;;;27.10;65.70;;;;;;4415540;28;654842;-64
2023/07/21 14:01:47;;;;;;;4.47;2.30;;;27.00;64.30;;;;;;4396756;28;654426;-62
2023/07/21 14:04:34;;;;;;;3.60;2.13;;;26.90;62.90;;;;;;4418143;28;654404;-63
2023/07/21 14:07:21;;;;;;;3.80;2.40;;;26.60;65.50;;;;;;4385575;28;654466;-63
2023/07/21 14:10:11;;;;;;;6.90;2.55;;;26.30;67.10;;;;;;4417971;28;654684;-63
2023/07/21 14:12:58;;;;;;;4.60;2.55;;;26.00;65.60;;;;;;4400902;28;655615;-63
2023/07/21 14:15:45;;;;;;;8.82;2.42;;;25.70;66.80;;;;;;4386134;28;654586;-63
2023/07/21 14:18:32;;;;;;;3.92;2.42;;;25.50;69.20;;;;;;4408735;28;654870;-62